ZEC weather

Secunda Airport
Secunda, Mpumalanga, South Africa

Public forecast

Using degrees Celsius for public forecast. Weather courtesy of forecast.io.

Closest aviation weather report (METAR) to Secunda Airport

Report is more than 6 hours old.

Closest report is Ermelo Airport, 43.5 nm (80.6 km) E. Retrieved 2020/01/22 10:47 UTC (15 hours ago):

FAEO 221047Z 31008KT 9999 FEW020 SCT070 24/17 Q1020

Closest aviation forecast (TAF) to Secunda Airport

Forecast is more than 12 hours old.

Closest forecast is Ermelo Airport, 43.5 nm (80.6 km) E. Retrieved 2017/06/05 04:55 UTC (3 years ago):

TAF FAEO 050300Z 0504/0515 09006KT CAVOK TX18/0513ZTN05/0504Z